Time;durP1;ratioP1;P1;durP2;ratioP2;P2;SDS_P1;SDS_P2;PMS_P1;PMS_P2;Temp;Humidity;BMP_temperature;BMP_pressure;BME280_temperature;BME280_humidity;BME280_pressure;Samples;Min_cycle;Max_cycle;Signal;HPM_P1;HPM_P2
2023/03/03 00:00:44;;;;;;;57.83;34.17;;;;;;;7.71;51.46;98875.53;5091596;28;20067;-47
2023/03/03 00:03:45;;;;;;;52.92;35.80;;;;;;;7.76;52.16;98870.59;5072973;28;20020;-46
2023/03/03 00:06:19;;;;;;;50.75;35.38;;;;;;;7.74;51.25;98872.56;5092013;28;20032;-46
2023/03/03 00:09:08;;;;;;;49.17;34.55;;;;;;;7.67;50.51;98865.63;5070528;28;20028;-47
2023/03/03 00:12:14;;;;;;;44.22;32.85;;;;;;;7.49;50.72;98879.00;5090704;28;20038;-47
2023/03/03 00:14:40;;;;;;;46.78;32.83;;;;;;;7.37;51.02;98874.19;5091900;28;20095;-46
2023/03/03 00:17:26;;;;;;;48.42;34.05;;;;;;;7.33;50.78;98877.31;5072291;28;20024;-47
2023/03/03 00:20:34;;;;;;;58.28;35.78;;;;;;;7.25;51.31;98883.41;5056938;28;20039;-48
2023/03/03 00:23:38;;;;;;;52.95;36.25;;;;;;;7.17;52.37;98878.25;5073723;28;20123;-48
2023/03/03 00:26:55;;;;;;;47.10;31.98;;;;;;;7.15;52.03;98885.44;5073759;28;20028;-47
2023/03/03 00:29:57;;;;;;;49.95;34.88;;;;;;;7.10;52.96;98879.91;5091876;28;20512;-47
2023/03/03 00:32:59;;;;;;;50.72;36.30;;;;;;;7.15;53.29;98877.59;5091493;28;20036;-48
2023/03/03 00:35:43;;;;;;;62.35;37.70;;;;;;;7.13;52.39;98874.34;5091676;28;20031;-47
2023/03/03 00:38:35;;;;;;;46.28;34.95;;;;;;;7.06;52.30;98882.06;5091749;28;20470;-46
2023/03/03 00:41:38;;;;;;;48.75;35.90;;;;;;;7.07;52.84;98880.28;5093642;28;20085;-47
2023/03/03 00:44:57;;;;;;;46.08;35.08;;;;;;;7.07;53.03;98875.06;5077579;28;20032;-47
2023/03/03 00:47:43;;;;;;;48.60;34.75;;;;;;;7.08;53.13;98874.84;5077518;28;20127;-48
2023/03/03 00:50:11;;;;;;;;;;;;;;;7.19;52.49;98871.06;5078093;28;20039;-47
2023/03/03 00:53:18;;;;;;;48.95;34.13;;;;;;;7.16;52.59;98872.22;5077402;28;20278;-47
2023/03/03 00:55:45;;;;;;;;;;;;;;;7.17;52.44;98871.22;5096060;28;20020;-46
2023/03/03 00:58:33;;;;;;;;;;;;;;;;;;;;;
2023/03/03 01:01:24;;;;;;;50.10;40.22;;;;;;;7.09;52.23;98873.88;5093121;28;20035;-48
2023/03/03 01:04:08;;;;;;;57.55;39.58;;;;;;;6.94;53.23;98879.03;5095362;28;20420;-47
2023/03/03 01:06:55;;;;;;;58.80;42.35;;;;;;;6.99;52.82;98879.31;5077143;28;20028;-47
2023/03/03 01:09:22;;;;;;;52.55;37.58;;;;;;;7.01;53.41;98876.56;5095284;28;20020;-46
2023/03/03 01:11:58;;;;;;;50.40;35.72;;;;;;;6.97;53.06;98881.28;5076980;28;20386;-46
2023/03/03 01:14:44;;;;;;;51.90;35.42;;;;;;;6.91;52.90;98889.81;5077066;28;20028;-47
2023/03/03 01:17:15;;;;;;;47.35;36.92;;;;;;;6.91;53.98;98889.00;5077155;28;20024;-48
2023/03/03 01:19:54;;;;;;;49.42;34.55;;;;;;;6.99;54.02;98889.75;5101709;28;20051;-48
2023/03/03 01:22:20;;;;;;;48.78;35.13;;;;;;;7.02;53.65;98891.22;5097085;28;20050;-46
2023/03/03 01:24:48;;;;;;;50.30;36.92;;;;;;;6.97;53.48;98891.72;5115456;28;20115;-46
2023/03/03 01:27:15;;;;;;;51.92;35.80;;;;;;;6.97;52.93;98891.72;5097357;28;20050;-46
2023/03/03 01:29:41;;;;;;;48.17;35.15;;;;;;;7.08;52.24;98897.53;5115267;28;20055;-46
2023/03/03 01:32:08;;;;;;;52.17;34.63;;;;;;;7.08;53.02;98890.50;5115295;28;20882;-46
2023/03/03 01:34:35;;;;;;;51.40;35.45;;;;;;;7.06;53.17;98899.50;5115283;28;20027;-46
2023/03/03 01:37:02;;;;;;;53.35;33.65;;;;;;;7.03;52.64;98894.66;5096848;28;20049;-45
2023/03/03 01:39:29;;;;;;;49.65;35.25;;;;;;;6.99;52.60;98894.97;5115176;28;20034;-45
2023/03/03 01:41:56;;;;;;;166.65;135.95;;;;;;;6.95;53.71;98888.47;5096687;28;20080;-46
2023/03/03 01:44:23;;;;;;;146.02;131.00;;;;;;;6.98;53.36;98888.16;5097049;28;20032;-46
2023/03/03 01:46:56;;;;;;;169.80;151.02;;;;;;;7.05;54.27;98885.66;5114967;28;20024;-46
2023/03/03 01:49:55;;;;;;;97.00;86.43;;;;;;;7.07;53.40;98891.53;5096617;28;20070;-46
2023/03/03 01:52:51;;;;;;;51.53;39.38;;;;;;;6.99;53.26;98892.38;5112091;28;20026;-46
2023/03/03 01:56:00;;;;;;;51.67;38.53;;;;;;;6.93;53.41;98897.47;5114925;28;20039;-47
2023/03/03 01:59:05;;;;;;;53.70;38.35;;;;;;;6.92;53.26;98895.84;5096445;28;20104;-47
2023/03/03 02:01:46;;;;;;;52.33;35.28;;;;;;;6.83;53.71;98894.28;5114595;28;20027;-47
2023/03/03 02:04:28;;;;;;;51.50;36.15;;;;;;;6.77;53.21;98890.53;5096697;28;20028;-47
2023/03/03 02:07:26;;;;;;;49.90;35.75;;;;;;;6.67;53.25;98889.94;5096599;28;20523;-46
2023/03/03 02:10:12;;;;;;;50.08;36.05;;;;;;;6.64;53.37;98890.25;5096195;28;20023;-48
2023/03/03 02:13:02;;;;;;;48.97;34.95;;;;;;;6.57;53.81;98893.56;5096197;28;20028;-46
2023/03/03 02:15:43;;;;;;;57.25;38.70;;;;;;;6.57;54.21;98897.97;5114499;28;20024;-47
2023/03/03 02:18:29;;;;;;;57.20;40.60;;;;;;;6.65;54.20;98897.13;5114720;28;20106;-47
2023/03/03 02:21:38;;;;;;;60.08;38.40;;;;;;;6.49;53.33;98898.81;5114243;28;20508;-47
2023/03/03 02:24:46;;;;;;;56.60;40.85;;;;;;;6.49;53.49;98898.00;5114350;28;20024;-47
2023/03/03 02:27:35;;;;;;;60.13;40.40;;;;;;;6.61;53.16;98896.63;5114218;28;20027;-47
2023/03/03 02:30:24;;;;;;;51.35;40.70;;;;;;;6.48;53.92;98897.19;5095796;28;20062;-47
2023/03/03 02:33:13;;;;;;;53.03;40.40;;;;;;;6.43;53.91;98893.47;5095650;28;20525;-46
2023/03/03 02:35:54;;;;;;;62.67;49.05;;;;;;;6.47;53.85;98887.72;5114095;28;20076;-48
2023/03/03 02:39:04;;;;;;;52.35;39.97;;;;;;;6.43;54.03;98886.44;5095707;28;20030;-47
2023/03/03 02:41:54;;;;;;;65.20;40.40;;;;;;;6.37;53.80;98889.72;5113879;28;20031;-47
2023/03/03 02:44:43;;;;;;;58.53;41.47;;;;;;;6.33;53.99;98885.81;5095617;28;20039;-47
2023/03/03 02:47:25;;;;;;;49.55;36.47;;;;;;;6.26;54.48;98885.69;5113801;28;20778;-47
2023/03/03 02:50:04;;;;;;;54.13;41.47;;;;;;;6.31;54.52;98885.19;5113736;28;20024;-47
2023/03/03 02:52:50;;;;;;;62.28;44.25;;;;;;;6.38;54.55;98881.75;5113678;28;20019;-48
2023/03/03 02:55:35;;;;;;;58.47;40.80;;;;;;;6.50;54.21;98878.75;5095341;28;20019;-47
2023/03/03 02:58:00;;;;;;;53.88;36.97;;;;;;;6.46;53.87;98888.72;5095346;28;20093;-46
2023/03/03 03:00:27;;;;;;;51.90;36.83;;;;;;;6.40;54.02;98890.19;5113497;28;20062;-46
2023/03/03 03:03:02;;;;;;;49.03;37.15;;;;;;;6.33;54.64;98891.03;5095240;28;20401;-46
2023/03/03 03:05:29;;;;;;;50.85;38.33;;;;;;;6.35;54.46;98894.28;5112555;28;20058;-46
2023/03/03 03:07:56;;;;;;;102.03;90.45;;;;;;;6.42;54.19;98891.81;5113464;28;20016;-46
2023/03/03 03:10:23;;;;;;;59.75;41.63;;;;;;;6.36;53.38;98895.94;5094973;28;20020;-46
2023/03/03 03:12:49;;;;;;;54.22;37.05;;;;;;;6.32;53.63;98897.25;5095036;28;20031;-46
2023/03/03 03:15:16;;;;;;;53.58;36.03;;;;;;;6.23;53.50;98900.84;5095019;28;20032;-46
2023/03/03 03:17:43;;;;;;;46.40;35.08;;;;;;;6.06;53.27;98905.28;5113222;28;20420;-46
2023/03/03 03:20:10;;;;;;;52.88;35.50;;;;;;;5.91;53.40;98900.69;5091276;28;20398;-45
2023/03/03 03:22:37;;;;;;;54.00;35.85;;;;;;;5.78;54.48;98900.41;5092816;28;20028;-46
2023/03/03 03:25:12;;;;;;;56.70;36.30;;;;;;;5.79;54.02;98908.06;5009303;27;3391641;-44
2023/03/03 03:27:48;;;;;;;51.97;37.70;;;;;;;5.70;54.73;98900.41;5109655;28;20059;-46
2023/03/03 03:30:15;;;;;;;53.80;36.38;;;;;;;5.63;54.47;98904.63;5108269;28;20082;-44
2023/03/03 03:33:01;;;;;;;48.65;34.05;;;;;;;5.48;55.15;98914.88;5108111;28;20028;-45
2023/03/03 03:35:28;;;;;;;55.90;36.92;;;;;;;5.36;54.29;98912.59;5108139;28;20028;-44
2023/03/03 03:37:54;;;;;;;51.15;34.90;;;;;;;5.43;55.55;98907.53;5108039;28;20028;-44
2023/03/03 03:40:41;;;;;;;50.30;35.38;;;;;;;5.46;54.12;98909.03;5109388;28;20449;-44
2023/03/03 03:43:09;;;;;;;52.10;35.97;;;;;;;5.25;54.24;98915.53;5109362;28;20020;-45
2023/03/03 03:45:43;;;;;;;55.40;38.85;;;;;;;5.07;55.50;98915.66;5107937;28;20032;-45
2023/03/03 03:48:29;;;;;;;68.68;41.97;;;;;;;5.02;55.27;98907.50;5109234;28;20024;-45
2023/03/03 03:50:59;;;;;;;;;;;;;;;5.05;55.35;98919.34;5109683;28;20046;-45
2023/03/03 03:53:27;;;;;;;76.15;61.90;;;;;;;5.07;56.40;98920.84;5109210;28;19915;-44
2023/03/03 03:56:09;;;;;;;83.13;61.42;;;;;;;5.19;57.01;98921.34;5107686;28;20393;-45
2023/03/03 03:58:35;;;;;;;56.47;42.58;;;;;;;5.30;56.50;98921.03;5109331;28;20028;-44
2023/03/03 04:01:06;;;;;;;51.38;38.88;;;;;;;5.42;56.30;98915.53;5108968;28;20497;-45
2023/03/03 04:03:33;;;;;;;53.65;37.05;;;;;;;5.47;56.00;98919.25;5108937;28;20032;-44
2023/03/03 04:06:00;;;;;;;85.90;66.40;;;;;;;5.40;55.71;98924.31;5108868;28;20023;-46
2023/03/03 04:08:26;;;;;;;64.35;48.13;;;;;;;5.45;55.94;98920.41;5108821;28;20585;-47
2023/03/03 04:10:54;;;;;;;132.43;118.18;;;;;;;5.47;56.30;98918.44;5108808;28;20077;-46
2023/03/03 04:13:22;;;;;;;78.47;67.40;;;;;;;5.54;56.22;98929.84;5107479;28;20032;-47
2023/03/03 04:15:49;;;;;;;59.13;46.45;;;;;;;5.59;56.11;98924.97;5108808;28;20023;-46
2023/03/03 04:18:17;;;;;;;59.15;44.38;;;;;;;5.69;56.10;98915.19;5107426;28;20059;-47
2023/03/03 04:20:44;;;;;;;73.53;57.75;;;;;;;5.78;56.26;98916.03;5108626;28;20024;-47
2023/03/03 04:23:11;;;;;;;76.80;58.78;;;;;;;5.88;55.84;98910.66;5111448;28;20055;-47
2023/03/03 04:25:38;;;;;;;61.03;45.30;;;;;;;5.85;55.10;98913.56;5129077;28;20123;-47
2023/03/03 04:28:05;;;;;;;60.55;43.72;;;;;;;5.88;55.50;98910.66;5128977;28;20515;-47
2023/03/03 04:30:32;;;;;;;78.88;59.35;;;;;;;5.89;55.47;98907.06;5110567;28;20030;-47
2023/03/03 04:32:59;;;;;;;66.53;53.80;;;;;;;5.89;56.00;98905.25;5128960;28;20012;-47
2023/03/03 04:35:27;;;;;;;62.38;46.92;;;;;;;5.98;55.82;98903.50;5121555;28;20493;-48
2023/03/03 04:37:54;;;;;;;57.33;41.80;;;;;;;6.05;55.44;98904.44;5115043;28;20020;-47
2023/03/03 04:40:21;;;;;;;53.97;43.75;;;;;;;6.06;55.84;98905.28;5115075;28;20364;-47
2023/03/03 04:42:48;;;;;;;65.65;48.05;;;;;;;6.03;55.16;98903.00;5096815;28;20035;-46
2023/03/03 04:45:26;;;;;;;60.03;41.80;;;;;;;6.03;55.48;98901.19;5114867;28;20024;-49
2023/03/03 04:48:13;;;;;;;56.53;41.42;;;;;;;6.09;55.23;98903.13;5114955;28;20023;-49
2023/03/03 04:51:01;;;;;;;58.75;39.38;;;;;;;6.10;54.52;98907.38;5114908;28;20026;-47
2023/03/03 04:53:39;;;;;;;52.20;34.72;;;;;;;6.10;54.84;98903.97;5114874;28;20024;-49
2023/03/03 04:56:06;;;;;;;51.80;37.80;;;;;;;6.00;54.18;98909.38;5114978;28;20042;-47
2023/03/03 04:58:33;;;;;;;60.65;36.53;;;;;;;5.70;53.66;98911.63;5096438;28;20023;-46
2023/03/03 05:01:00;;;;;;;53.10;34.60;;;;;;;5.27;54.30;98918.78;5114679;28;20511;-47
2023/03/03 05:03:29;;;;;;;54.88;39.80;;;;;;;4.80;54.76;98916.69;5114605;28;20394;-47
2023/03/03 05:05:56;;;;;;;53.78;38.45;;;;;;;4.24;55.69;98921.47;5114569;28;20085;-47
2023/03/03 05:08:24;;;;;;;51.08;36.42;;;;;;;3.96;56.64;98928.59;5114558;28;20028;-47
2023/03/03 05:10:54;;;;;;;50.92;36.17;;;;;;;3.94;57.21;98920.13;5096181;28;20019;-46
2023/03/03 05:13:21;;;;;;;53.08;37.38;;;;;;;3.96;57.40;98918.19;5096084;28;20023;-47
2023/03/03 05:15:54;;;;;;;69.65;46.72;;;;;;;3.89;57.47;98923.19;5114622;28;20023;-47
2023/03/03 05:18:21;;;;;;;52.75;34.15;;;;;;;4.02;57.50;98917.59;5114383;28;20450;-47
2023/03/03 05:20:52;;;;;;;53.75;35.78;;;;;;;4.02;57.19;98925.38;5114296;28;20051;-48
2023/03/03 05:23:23;;;;;;;58.97;37.42;;;;;;;3.82;56.41;98923.94;5078077;28;20055;-48
2023/03/03 05:25:59;;;;;;;67.63;47.92;;;;;;;3.50;57.37;98926.16;5113935;28;20040;-48
2023/03/03 05:28:32;;;;;;;71.30;53.47;;;;;;;3.32;57.96;98928.75;5114179;28;20020;-47
2023/03/03 05:31:08;;;;;;;99.20;76.45;;;;;;;3.32;58.60;98930.50;5095578;28;20445;-48
2023/03/03 05:33:35;;;;;;;64.85;48.25;;;;;;;3.35;58.57;98922.44;5114016;28;20054;-47
2023/03/03 05:36:02;;;;;;;73.55;57.90;;;;;;;3.51;58.82;98929.56;5113975;28;20020;-47
2023/03/03 05:38:29;;;;;;;78.18;49.60;;;;;;;3.66;59.14;98928.03;5095926;28;20024;-46
2023/03/03 05:40:57;;;;;;;62.25;41.53;;;;;;;3.80;58.70;98924.09;5113854;28;20019;-47
2023/03/03 05:43:23;;;;;;;60.30;38.33;;;;;;;3.89;58.44;98922.38;5113785;28;20076;-47
2023/03/03 05:45:56;;;;;;;57.33;36.38;;;;;;;3.87;58.27;98924.31;5113631;28;20028;-47
2023/03/03 05:48:31;;;;;;;60.75;38.70;;;;;;;3.80;58.91;98929.28;5112930;28;20549;-47
2023/03/03 05:51:09;;;;;;;56.45;35.45;;;;;;;3.83;58.39;98931.59;5113735;28;20516;-48
2023/03/03 05:53:40;;;;;;;59.70;38.70;;;;;;;3.80;58.73;98934.47;5113751;28;20034;-48
2023/03/03 05:56:19;;;;;;;64.97;40.65;;;;;;;3.98;58.75;98932.69;5113584;28;20106;-48
2023/03/03 05:58:49;;;;;;;67.88;48.50;;;;;;;3.92;58.44;98935.06;5113587;28;20091;-47
2023/03/03 06:01:28;;;;;;;61.67;46.65;;;;;;;3.87;58.92;98932.13;5113469;28;20084;-48
2023/03/03 06:03:56;;;;;;;72.68;51.80;;;;;;;3.93;58.90;98928.91;5113371;28;20550;-48
2023/03/03 06:06:35;;;;;;;64.20;42.17;;;;;;;4.05;58.57;98935.47;5095065;28;20030;-48
2023/03/03 06:09:06;;;;;;;61.40;40.90;;;;;;;3.95;58.29;98927.78;5095007;28;20035;-48
2023/03/03 06:11:32;;;;;;;59.47;41.60;;;;;;;3.90;58.34;98930.00;5113561;28;20090;-47
2023/03/03 06:13:58;;;;;;;57.33;38.88;;;;;;;3.90;58.70;98931.78;5113200;28;20062;-47
2023/03/03 06:16:32;;;;;;;63.33;38.78;;;;;;;3.92;58.77;98929.84;5094815;28;20043;-47
2023/03/03 06:18:58;;;;;;;60.15;41.85;;;;;;;3.94;58.58;98933.97;5094818;28;20030;-47
2023/03/03 06:21:31;;;;;;;58.90;40.13;;;;;;;3.99;59.18;98933.50;5113338;28;20451;-47
2023/03/03 06:24:00;;;;;;;59.00;39.58;;;;;;;4.04;58.97;98930.44;5110566;28;20395;-48
2023/03/03 06:26:27;;;;;;;63.13;37.40;;;;;;;4.18;58.60;98938.47;5094871;28;20035;-47
2023/03/03 06:28:54;;;;;;;66.93;45.13;;;;;;;4.28;58.41;98940.97;5112978;28;20055;-47
2023/03/03 06:31:21;;;;;;;57.15;39.70;;;;;;;4.47;58.53;98942.56;5112905;28;20028;-47
2023/03/03 06:33:48;;;;;;;67.20;44.13;;;;;;;4.72;58.53;98940.06;5094522;28;20060;-47
2023/03/03 06:36:16;;;;;;;57.97;38.20;;;;;;;4.83;58.21;98945.00;5112858;28;20027;-47
2023/03/03 06:38:43;;;;;;;70.18;35.92;;;;;;;4.99;57.47;98952.03;5094519;28;20028;-46
2023/03/03 06:41:10;;;;;;;52.53;33.88;;;;;;;5.02;56.84;98945.69;5112719;28;20486;-47
2023/03/03 06:43:38;;;;;;;52.60;36.15;;;;;;;4.93;56.90;98952.63;5112655;28;20497;-47
2023/03/03 06:46:05;;;;;;;51.78;34.63;;;;;;;4.73;55.21;98958.09;5112596;28;20028;-46
2023/03/03 06:48:32;;;;;;;69.30;43.13;;;;;;;4.32;55.65;98965.66;5112646;28;20020;-47
2023/03/03 06:51:02;;;;;;;66.95;40.50;;;;;;;3.89;56.91;98964.75;5094291;28;20091;-47
2023/03/03 06:53:31;;;;;;;76.82;45.33;;;;;;;3.56;57.45;98974.00;5112543;28;20031;-46
2023/03/03 06:56:00;;;;;;;102.93;65.65;;;;;;;3.40;58.85;98972.91;5094211;28;20028;-47
2023/03/03 06:58:28;;;;;;;95.85;81.15;;;;;;;3.47;59.02;98978.31;5112192;28;20023;-46
2023/03/03 07:00:59;;;;;;;96.47;77.68;;;;;;;3.34;59.30;98977.84;5112459;28;20100;-46
2023/03/03 07:03:42;;;;;;;83.47;52.22;;;;;;;3.54;59.94;98976.78;5112365;28;20099;-47
2023/03/03 07:06:33;;;;;;;77.07;53.58;;;;;;;3.80;59.06;98976.84;5112429;28;20028;-47
2023/03/03 07:09:00;;;;;;;68.82;45.15;;;;;;;3.93;59.21;98981.66;5112144;28;20481;-46
2023/03/03 07:11:27;;;;;;;74.10;54.63;;;;;;;4.01;59.18;98980.91;5112295;28;20028;-46
2023/03/03 07:13:56;;;;;;;74.70;46.53;;;;;;;4.00;58.85;98985.28;5093958;28;20054;-46
2023/03/03 07:16:27;;;;;;;62.30;40.28;;;;;;;4.42;58.95;98980.34;5112305;28;20027;-47
2023/03/03 07:19:00;;;;;;;67.25;44.15;;;;;;;5.18;56.44;98985.56;5093934;28;20020;-46
2023/03/03 07:21:35;;;;;;;71.70;46.33;;;;;;;5.90;55.53;98984.22;5112236;28;20485;-47
2023/03/03 07:24:31;;;;;;;69.63;48.13;;;;;;;6.03;54.45;98989.78;5090189;28;20078;-47
2023/03/03 07:27:21;;;;;;;57.33;38.10;;;;;;;6.10;53.54;98980.34;5089485;28;20028;-47
2023/03/03 07:29:50;;;;;;;68.80;40.88;;;;;;;6.52;52.71;98984.53;5091865;28;20109;-47
2023/03/03 07:32:35;;;;;;;73.22;44.72;;;;;;;6.69;53.09;98990.50;5091762;28;20016;-47
2023/03/03 07:35:29;;;;;;;62.92;36.70;;;;;;;7.05;51.66;98979.59;5090347;28;20446;-47
2023/03/03 07:37:57;;;;;;;68.82;38.10;;;;;;;7.38;49.59;98982.03;5091820;28;20031;-47
2023/03/03 07:40:35;;;;;;;87.70;68.45;;;;;;;7.54;49.86;98983.75;5091644;28;20036;-47
2023/03/03 07:43:58;;;;;;;99.10;74.45;;;;;;;7.48;50.02;98993.06;5091878;28;20060;-47
2023/03/03 07:46:47;;;;;;;76.25;58.20;;;;;;;7.66;50.13;98995.41;5029245;28;20028;-47
2023/03/03 07:49:37;;;;;;;74.05;51.70;;;;;;;8.22;49.44;98995.13;5012762;28;20611;-47
2023/03/03 07:52:34;;;;;;;63.15;39.80;;;;;;;8.45;47.94;98995.13;5029379;28;20228;-47
2023/03/03 07:55:41;;;;;;;69.22;48.97;;;;;;;8.74;46.81;98998.75;5029220;28;20042;-47
2023/03/03 07:58:54;;;;;;;77.75;47.50;;;;;;;8.90;46.98;98997.75;5029173;28;20040;-47
2023/03/03 08:02:08;;;;;;;62.45;39.28;;;;;;;8.95;46.43;98998.00;5029010;28;20049;-47
2023/03/03 08:04:54;;;;;;;67.32;41.90;;;;;;;9.20;46.13;98998.53;5029079;28;20104;-47
2023/03/03 08:07:22;;;;;;;90.30;45.53;;;;;;;9.67;45.69;99001.66;5029031;28;20037;-47
2023/03/03 08:10:00;;;;;;;202.90;50.17;;;;;;;10.00;45.17;98994.91;4996431;28;20032;-47
2023/03/03 08:12:46;;;;;;;366.60;63.00;;;;;;;10.46;44.98;99000.72;5032863;28;20057;-47
2023/03/03 08:15:22;;;;;;;;;;;;;;;11.02;45.26;98997.19;5016686;28;20029;-48
2023/03/03 08:18:19;;;;;;;197.07;51.35;;;;;;;11.71;44.60;98997.03;5032824;28;20417;-47
2023/03/03 08:21:30;;;;;;;678.72;88.88;;;;;;;12.18;43.11;98995.25;5073509;28;20145;-48
2023/03/03 08:24:11;;;;;;;433.30;67.35;;;;;;;11.85;42.30;99002.28;5099154;28;20590;-48
2023/03/03 08:26:51;;;;;;;227.65;55.17;;;;;;;12.00;42.78;98989.78;5115277;28;20393;-48
2023/03/03 08:29:34;;;;;;;143.40;47.85;;;;;;;12.34;42.07;98998.50;5096920;28;20062;-48
2023/03/03 08:32:00;;;;;;;576.95;77.15;;;;;;;12.29;41.25;98993.81;5115290;28;20019;-48
2023/03/03 08:34:36;;;;;;;636.92;83.88;;;;;;;12.22;41.43;98994.84;5096673;28;20032;-49
2023/03/03 08:37:05;;;;;;;696.35;88.90;;;;;;;12.29;40.89;99003.53;5115107;28;20027;-48
2023/03/03 08:39:48;;;;;;;221.10;52.88;;;;;;;12.71;41.39;99001.47;5115128;28;20023;-48
2023/03/03 08:42:33;;;;;;;119.82;45.67;;;;;;;13.21;39.82;99000.91;5115024;28;20019;-45
2023/03/03 08:45:11;;;;;;;111.72;44.60;;;;;;;13.60;38.99;98999.91;5096713;28;20031;-46
2023/03/03 08:47:54;;;;;;;71.30;42.67;;;;;;;13.58;38.65;98994.03;5115207;28;20027;-45
2023/03/03 08:50:21;;;;;;;76.63;45.25;;;;;;;13.35;38.70;99005.91;5096553;28;20137;-45
2023/03/03 08:52:48;;;;;;;66.25;42.85;;;;;;;13.12;38.57;99006.41;5114888;28;20020;-45
2023/03/03 08:55:16;;;;;;;66.55;41.00;;;;;;;13.12;38.83;99011.69;5114831;28;20083;-45
2023/03/03 08:57:43;;;;;;;72.35;43.45;;;;;;;13.04;39.19;99008.44;5096440;28;20024;-45
2023/03/03 09:00:13;;;;;;;85.38;53.17;;;;;;;12.93;38.85;99012.56;5114585;28;20488;-45
2023/03/03 09:02:44;;;;;;;73.65;43.67;;;;;;;12.68;39.61;99010.59;5114753;28;20032;-45
2023/03/03 09:05:16;;;;;;;78.82;46.65;;;;;;;12.23;39.18;99005.16;5114552;28;20024;-45
2023/03/03 09:07:44;;;;;;;80.30;47.67;;;;;;;11.84;40.62;99003.31;5096360;28;20124;-45
2023/03/03 09:10:14;;;;;;;62.90;39.28;;;;;;;11.89;40.30;98999.09;5114558;28;20103;-45
2023/03/03 09:12:49;;;;;;;64.20;39.88;;;;;;;12.08;39.80;98997.47;5114560;28;20098;-44
2023/03/03 09:15:36;;;;;;;73.05;43.55;;;;;;;12.12;40.03;99003.16;5112254;28;20043;-45
2023/03/03 09:18:08;;;;;;;65.22;40.90;;;;;;;12.24;39.96;99004.16;5114755;28;20012;-45
2023/03/03 09:20:45;;;;;;;69.43;40.88;;;;;;;12.44;39.97;99004.16;5114272;28;20085;-44
2023/03/03 09:23:30;;;;;;;80.20;45.08;;;;;;;12.63;40.18;99001.69;5114369;28;20084;-45
2023/03/03 09:26:25;;;;;;;92.40;54.03;;;;;;;13.69;39.18;99003.13;5073678;28;20034;-45
2023/03/03 09:28:54;;;;;;;60.67;44.75;;;;;;;15.13;36.48;98995.09;5073580;28;20074;-45
2023/03/03 09:31:39;;;;;;;53.60;42.17;;;;;;;16.51;35.12;98993.28;5073568;28;20543;-45
2023/03/03 09:34:50;;;;;;;67.13;44.08;;;;;;;17.66;33.20;98980.19;5073528;28;20035;-46
2023/03/03 09:37:39;;;;;;;64.68;45.63;;;;;;;18.62;31.18;98992.56;5073296;28;20066;-46
2023/03/03 09:40:44;;;;;;;63.25;45.75;;;;;;;19.43;29.98;98983.97;5073381;28;20032;-47
2023/03/03 09:43:36;;;;;;;60.47;52.08;;;;;;;20.10;29.57;98990.75;5073267;28;20033;-44
2023/03/03 09:46:42;;;;;;;65.18;52.88;;;;;;;20.49;28.11;98981.66;5072268;28;20037;-44
2023/03/03 09:49:38;;;;;;;;;;;;;;;21.24;28.89;98978.81;5073653;28;20025;-45
2023/03/03 09:52:41;;;;;;;52.38;45.15;;;;;;;21.27;27.15;98984.44;5073080;28;19908;-45
2023/03/03 09:55:11;;;;;;;48.80;39.88;;;;;;;21.65;26.70;98979.72;5073107;28;20421;-44
2023/03/03 09:58:17;;;;;;;66.80;47.80;;;;;;;21.90;25.58;98983.47;5071697;28;20028;-45
2023/03/03 10:01:09;;;;;;;;;;;;;;;22.00;25.91;98978.13;5073417;28;20039;-45
2023/03/03 10:04:21;;;;;;;68.07;58.55;;;;;;;21.82;25.61;98979.47;5072819;28;19950;-45
2023/03/03 10:07:36;;;;;;;74.80;63.42;;;;;;;21.61;25.94;98980.50;5072813;28;20099;-44
2023/03/03 10:10:39;;;;;;;57.08;47.45;;;;;;;21.84;25.82;98979.19;5072774;28;20051;-44
2023/03/03 10:13:09;;;;;;;72.22;40.28;;;;;;;22.22;25.07;98977.03;5072714;28;20029;-44
2023/03/03 10:16:08;;;;;;;50.33;38.47;;;;;;;22.32;24.40;98982.41;5072492;28;20091;-45
2023/03/03 10:18:52;;;;;;;90.25;56.47;;;;;;;22.08;24.90;98977.56;5074976;28;20021;-43
2023/03/03 10:21:48;;;;;;;101.95;72.75;;;;;;;21.20;24.93;98977.72;5072516;28;20116;-43
2023/03/03 10:24:40;;;;;;;1274.90;933.30;;;;;;;20.15;26.05;98974.78;5085461;28;20043;-43
2023/03/03 10:27:30;;;;;;;279.88;252.27;;;;;;;19.11;27.00;98978.59;5113117;28;20481;-43
2023/03/03 10:30:30;;;;;;;130.38;117.07;;;;;;;18.04;28.49;98999.97;5056872;28;20039;-43
2023/03/03 10:33:15;;;;;;;82.63;68.32;;;;;;;17.74;29.16;98993.06;5094165;28;20119;-43
2023/03/03 10:35:48;;;;;;;66.32;53.05;;;;;;;17.69;29.21;98994.84;5112933;28;20032;-44
2023/03/03 10:38:47;;;;;;;59.78;44.38;;;;;;;17.60;29.39;98999.72;5094634;28;20036;-44
2023/03/03 10:41:35;;;;;;;63.47;51.22;;;;;;;17.45;29.89;98997.59;5094488;28;20031;-43
2023/03/03 10:44:26;;;;;;;48.17;38.17;;;;;;;17.22;29.82;98987.06;5112755;28;20034;-46
2023/03/03 10:47:34;;;;;;;63.00;45.90;;;;;;;16.90;30.59;98990.97;5112771;28;20020;-45
2023/03/03 10:50:49;;;;;;;62.42;46.78;;;;;;;16.68;31.14;98996.06;5069536;28;20039;-46
2023/03/03 10:53:33;;;;;;;86.38;65.00;;;;;;;16.87;31.56;98986.13;5112750;28;20072;-46
2023/03/03 10:56:50;;;;;;;61.72;46.65;;;;;;;16.94;31.20;98986.00;5112480;28;20117;-46
2023/03/03 10:59:59;;;;;;;57.97;41.42;;;;;;;16.81;31.11;98992.38;5112786;28;20072;-47
2023/03/03 11:02:59;;;;;;;48.55;36.28;;;;;;;16.66;31.35;98978.75;5112419;28;20031;-46
2023/03/03 11:06:10;;;;;;;53.78;36.22;;;;;;;16.56;31.36;98982.00;5112380;28;20023;-45
2023/03/03 11:09:14;;;;;;;49.97;41.47;;;;;;;16.90;31.33;98984.84;5112312;28;20114;-46
2023/03/03 11:12:07;;;;;;;50.72;37.50;;;;;;;17.44;30.89;98974.75;5112107;28;20033;-46
2023/03/03 11:15:39;;;;;;;54.45;44.55;;;;;;;19.03;29.05;98965.72;5112392;28;20106;-46
2023/03/03 11:19:00;;;;;;;49.47;41.72;;;;;;;19.53;27.60;98960.13;5112272;28;20054;-46
2023/03/03 11:21:45;;;;;;;63.90;44.10;;;;;;;19.63;27.52;98962.06;5112016;28;20036;-45
2023/03/03 11:24:33;;;;;;;47.75;42.70;;;;;;;19.27;27.35;98959.06;5111529;28;20060;-45
2023/03/03 11:27:30;;;;;;;51.47;39.13;;;;;;;18.38;28.27;98967.25;5112206;28;20080;-45
2023/03/03 11:30:33;;;;;;;46.72;37.05;;;;;;;17.66;29.41;98966.91;5112068;28;20027;-45
2023/03/03 11:33:17;;;;;;;65.95;42.42;;;;;;;17.15;29.97;98952.75;5112034;28;20397;-45
2023/03/03 11:36:07;;;;;;;79.43;41.90;;;;;;;16.64;29.98;98954.31;5112029;28;20036;-45
2023/03/03 11:38:58;;;;;;;59.00;40.92;;;;;;;15.55;31.43;98960.78;5112118;28;20468;-45
2023/03/03 11:41:31;;;;;;;42.42;32.92;;;;;;;15.12;32.66;98965.22;5094091;28;20059;-45
2023/03/03 11:44:25;;;;;;;43.75;32.55;;;;;;;14.66;32.97;98944.66;5094001;28;20039;-44
2023/03/03 11:47:27;;;;;;;42.58;32.75;;;;;;;14.13;34.05;98959.16;5115828;28;20062;-45
2023/03/03 11:50:45;;;;;;;46.08;30.48;;;;;;;13.95;34.93;98957.28;5116054;28;20035;-45
2023/03/03 11:53:24;;;;;;;50.85;32.20;;;;;;;14.11;34.32;98963.84;5097713;28;20051;-45
2023/03/03 11:55:59;;;;;;;54.30;36.33;;;;;;;13.98;35.35;98957.66;5115978;28;20459;-45
2023/03/03 11:58:37;;;;;;;50.40;35.47;;;;;;;14.29;35.33;98944.59;5116027;28;20038;-45
2023/03/03 12:01:22;;;;;;;52.25;37.78;;;;;;;14.54;34.63;98941.91;5097551;28;20100;-45
2023/03/03 12:04:01;;;;;;;55.45;39.33;;;;;;;14.58;34.88;98951.81;5097524;28;20122;-45
2023/03/03 12:06:42;;;;;;;48.47;35.03;;;;;;;14.53;34.47;98948.22;5115687;28;20026;-45
2023/03/03 12:09:20;;;;;;;69.22;55.25;;;;;;;14.32;34.33;98941.50;5115714;28;20039;-45
2023/03/03 12:12:14;;;;;;;45.67;34.72;;;;;;;14.04;35.07;98948.03;5115762;28;20028;-45
2023/03/03 12:15:19;;;;;;;63.05;32.53;;;;;;;13.85;35.09;98947.19;5115987;28;20114;-45
2023/03/03 12:18:37;;;;;;;53.08;34.78;;;;;;;13.42;36.28;98941.81;5115557;28;20055;-46
2023/03/03 12:21:27;;;;;;;46.60;31.13;;;;;;;13.46;36.26;98945.63;5115463;28;20035;-45
2023/03/03 12:24:26;;;;;;;55.13;33.08;;;;;;;13.60;36.05;98941.88;5114877;28;20058;-44
2023/03/03 12:27:19;;;;;;;59.05;34.38;;;;;;;13.81;36.55;98932.03;5115458;28;20031;-45
2023/03/03 12:30:33;;;;;;;63.65;35.05;;;;;;;13.88;36.00;98927.47;5115265;28;20076;-45